createdAt,value
2023-01-13T00:00:16.554Z,8.60
2023-01-13T00:02:43.627Z,8.50
2023-01-13T00:05:10.769Z,10.60
2023-01-13T00:07:40.260Z,9.00
2023-01-13T00:10:09.466Z,8.60
2023-01-13T00:12:39.888Z,8.60
2023-01-13T00:15:07.847Z,11.10
2023-01-13T00:17:34.774Z,8.60
2023-01-13T00:20:01.690Z,9.40
2023-01-13T00:22:28.599Z,8.60
2023-01-13T00:24:55.588Z,8.60
2023-01-13T00:27:25.076Z,8.70
2023-01-13T00:29:51.999Z,11.10
2023-01-13T00:32:18.928Z,8.70
2023-01-13T00:34:45.846Z,8.70
2023-01-13T00:37:14.755Z,11.30
2023-01-13T00:39:42.070Z,10.10
2023-01-13T00:42:27.576Z,11.00
2023-01-13T00:44:54.499Z,10.00
2023-01-13T00:47:21.413Z,11.20
2023-01-13T00:49:48.325Z,9.00
2023-01-13T00:52:15.228Z,9.10
2023-01-13T00:54:42.136Z,11.20
2023-01-13T00:57:09.190Z,11.10
2023-01-13T00:59:36.099Z,11.40
2023-01-13T01:02:03.138Z,11.60
2023-01-13T01:04:30.137Z,10.80
2023-01-13T01:06:57.012Z,11.20
2023-01-13T01:09:23.939Z,9.50
2023-01-13T01:11:50.845Z,11.70
2023-01-13T01:14:17.756Z,9.60
2023-01-13T01:16:44.693Z,10.20
2023-01-13T01:19:11.635Z,12.20
2023-01-13T01:21:39.681Z,11.70
2023-01-13T01:24:07.039Z,10.10
2023-01-13T01:26:34.040Z,9.60
2023-01-13T01:29:02.421Z,9.70
2023-01-13T01:31:34.197Z,10.60
2023-01-13T01:34:01.261Z,11.20
2023-01-13T01:36:30.057Z,10.80
2023-01-13T01:38:58.247Z,10.20
2023-01-13T01:41:27.057Z,10.20
2023-01-13T01:44:04.262Z,12.00
2023-01-13T01:46:37.380Z,12.50
2023-01-13T01:49:13.235Z,9.60
2023-01-13T01:51:51.867Z,9.60
2023-01-13T01:54:40.735Z,9.60
2023-01-13T01:57:08.393Z,11.70
2023-01-13T01:59:35.392Z,12.30
2023-01-13T02:02:06.737Z,12.00
2023-01-13T02:04:34.968Z,11.50
2023-01-13T02:07:02.372Z,9.30
2023-01-13T02:09:29.417Z,9.20
2023-01-13T02:12:14.884Z,10.10
2023-01-13T02:14:41.845Z,10.70
2023-01-13T02:17:17.599Z,11.20
2023-01-13T02:20:13.760Z,8.90
2023-01-13T02:23:08.338Z,8.80
2023-01-13T02:26:06.008Z,8.70
2023-01-13T02:29:03.993Z,8.60
2023-01-13T02:31:42.823Z,8.60
2023-01-13T02:35:05.334Z,8.50
2023-01-13T02:37:33.211Z,8.50
2023-01-13T02:40:01.965Z,10.80
2023-01-13T02:43:01.571Z,8.50
2023-01-13T02:45:38.301Z,8.50
2023-01-13T02:48:06.429Z,9.60
2023-01-13T02:51:04.467Z,8.50
2023-01-13T02:53:40.908Z,8.40
2023-01-13T02:56:07.905Z,10.00
2023-01-13T02:58:35.486Z,9.50
2023-01-13T03:01:02.398Z,10.40
2023-01-13T03:03:30.898Z,8.20
2023-01-13T03:06:19.004Z,9.60
2023-01-13T03:08:53.708Z,8.20
2023-01-13T03:11:20.564Z,8.20
2023-01-13T03:14:19.842Z,9.00
2023-01-13T03:16:56.745Z,8.10
2023-01-13T03:20:01.531Z,8.10
2023-01-13T03:22:45.128Z,8.00
2023-01-13T03:25:12.571Z,8.10
2023-01-13T03:27:50.573Z,8.10
2023-01-13T03:30:29.748Z,8.10
2023-01-13T03:33:09.833Z,8.10
2023-01-13T03:35:38.324Z,8.10
2023-01-13T03:38:16.114Z,8.10
2023-01-13T03:40:46.105Z,8.10
2023-01-13T03:43:34.391Z,10.30
2023-01-13T03:46:05.029Z,8.00
2023-01-13T03:48:32.791Z,10.10
2023-01-13T03:51:05.038Z,8.00
2023-01-13T03:53:37.363Z,8.00
2023-01-13T03:56:10.701Z,8.00
2023-01-13T03:58:42.545Z,8.80
2023-01-13T04:01:18.157Z,10.30
2023-01-13T04:03:53.332Z,8.00
2023-01-13T04:06:27.130Z,9.40
2023-01-13T04:08:57.787Z,8.00
2023-01-13T04:11:40.065Z,10.60
2023-01-13T04:14:06.853Z,9.20
2023-01-13T04:16:35.201Z,8.00
2023-01-13T04:19:03.104Z,9.40
2023-01-13T04:21:30.045Z,10.30
2023-01-13T04:23:56.829Z,9.30
2023-01-13T04:26:24.415Z,10.20
2023-01-13T04:28:51.999Z,7.80
2023-01-13T04:31:18.879Z,9.80
2023-01-13T04:33:45.681Z,7.80
2023-01-13T04:36:12.472Z,7.80
2023-01-13T04:38:39.246Z,7.80
2023-01-13T04:41:06.100Z,7.80
2023-01-13T04:43:32.887Z,7.80
2023-01-13T04:45:59.696Z,8.90
2023-01-13T04:48:26.539Z,10.50
2023-01-13T04:50:53.352Z,8.20
2023-01-13T04:53:20.177Z,10.50
2023-01-13T04:55:47.959Z,9.00
2023-01-13T04:58:14.751Z,9.80
2023-01-13T05:00:41.787Z,9.30
2023-01-13T05:03:08.586Z,7.80
2023-01-13T05:05:35.390Z,7.80
2023-01-13T05:08:02.209Z,7.80
2023-01-13T05:10:29.060Z,9.80
2023-01-13T05:13:14.534Z,8.80
2023-01-13T05:16:00.435Z,7.80
2023-01-13T05:18:28.044Z,10.70
2023-01-13T05:20:54.820Z,7.80
2023-01-13T05:23:40.237Z,7.90
2023-01-13T05:26:07.212Z,7.90
2023-01-13T05:28:34.125Z,8.00
2023-01-13T05:31:01.066Z,8.00
2023-01-13T05:33:27.868Z,8.00
2023-01-13T05:35:54.681Z,8.00
2023-01-13T05:38:21.426Z,8.00
2023-01-13T05:41:06.766Z,10.60
2023-01-13T05:43:34.903Z,10.80
2023-01-13T05:46:05.593Z,8.00
2023-01-13T05:48:37.167Z,8.10
2023-01-13T05:51:04.755Z,8.20
2023-01-13T05:53:31.889Z,8.30
2023-01-13T05:56:23.932Z,9.50
2023-01-13T05:58:50.739Z,8.40
2023-01-13T06:01:17.570Z,9.30
2023-01-13T06:03:44.392Z,8.30
2023-01-13T06:06:11.391Z,8.40
2023-01-13T06:08:39.826Z,8.40
2023-01-13T06:11:06.865Z,8.40
2023-01-13T06:13:33.652Z,8.40
2023-01-13T06:16:06.702Z,9.00
2023-01-13T06:18:33.518Z,8.40
2023-01-13T06:21:00.397Z,11.30
2023-01-13T06:23:27.196Z,8.30
2023-01-13T06:26:20.273Z,8.20
2023-01-13T06:28:47.061Z,8.20
2023-01-13T06:31:13.888Z,8.10
2023-01-13T06:33:51.156Z,11.00
2023-01-13T06:36:26.210Z,8.00
2023-01-13T06:38:55.567Z,8.00
2023-01-13T06:41:42.297Z,8.00
2023-01-13T06:44:09.194Z,7.90
2023-01-13T06:46:36.114Z,8.90
2023-01-13T06:49:02.991Z,7.90
2023-01-13T06:51:29.773Z,9.20
2023-01-13T06:53:56.599Z,7.90
2023-01-13T06:56:23.395Z,9.10
2023-01-13T06:58:50.265Z,7.90
2023-01-13T07:01:17.191Z,8.90
2023-01-13T07:03:44.212Z,7.90
2023-01-13T07:06:11.045Z,10.20
2023-01-13T07:08:37.872Z,7.80
2023-01-13T07:11:04.738Z,10.70
2023-01-13T07:13:50.038Z,7.90
2023-01-13T07:16:16.893Z,9.10
2023-01-13T07:18:43.741Z,7.90
2023-01-13T07:21:11.987Z,7.90
2023-01-13T07:23:39.921Z,7.90
2023-01-13T07:26:08.106Z,7.90
2023-01-13T07:28:35.028Z,8.00
2023-01-13T07:31:01.824Z,11.10
2023-01-13T07:33:28.679Z,8.70
2023-01-13T07:36:01.971Z,9.30
2023-01-13T07:38:29.027Z,10.30
2023-01-13T07:40:55.909Z,11.20
2023-01-13T07:43:32.025Z,8.10
2023-01-13T07:45:59.846Z,9.60
2023-01-13T07:48:27.406Z,10.40
2023-01-13T07:50:54.592Z,9.70
2023-01-13T07:53:25.015Z,8.30
2023-01-13T07:55:55.819Z,9.60
2023-01-13T07:58:22.747Z,10.90
2023-01-13T08:00:49.557Z,8.40
2023-01-13T08:03:16.396Z,10.30
2023-01-13T08:05:43.225Z,11.20
2023-01-13T08:08:10.110Z,10.70
2023-01-13T08:10:37.721Z,8.70
2023-01-13T08:13:17.635Z,8.70
2023-01-13T08:15:44.780Z,8.70
2023-01-13T08:18:11.747Z,11.70
2023-01-13T08:24:52.378Z,8.60
2023-01-13T08:27:20.588Z,8.50
2023-01-13T08:29:48.025Z,8.50
2023-01-13T08:32:15.362Z,8.40
2023-01-13T08:34:42.226Z,8.40
2023-01-13T08:37:09.095Z,9.60
2023-01-13T08:39:36.790Z,11.30
2023-01-13T08:42:04.895Z,8.30
2023-01-13T08:44:33.335Z,8.30
2023-01-13T08:47:00.670Z,10.10
2023-01-13T08:49:27.572Z,8.40
2023-01-13T08:51:54.491Z,8.20
2023-01-13T08:54:21.366Z,9.10
2023-01-13T08:56:48.265Z,9.20
2023-01-13T08:59:16.665Z,10.70
2023-01-13T09:01:43.780Z,8.40
2023-01-13T09:04:31.083Z,8.90
2023-01-13T09:06:58.009Z,8.50
2023-01-13T09:09:26.945Z,8.50
2023-01-13T09:12:12.640Z,9.30
2023-01-13T09:14:40.262Z,10.20
2023-01-13T09:17:07.925Z,10.80
2023-01-13T09:19:34.996Z,11.00
2023-01-13T09:22:01.797Z,8.60
2023-01-13T09:24:28.888Z,10.70
2023-01-13T09:26:55.772Z,9.10
2023-01-13T09:29:22.620Z,8.70
2023-01-13T09:31:49.515Z,8.70
2023-01-13T09:34:37.944Z,10.80
2023-01-13T09:37:05.999Z,11.20
2023-01-13T09:39:33.672Z,8.90
2023-01-13T09:42:22.541Z,11.80
2023-01-13T09:44:54.990Z,9.10
2023-01-13T09:47:26.096Z,8.90
2023-01-13T09:49:53.013Z,10.50
2023-01-13T09:52:22.054Z,11.20
2023-01-13T09:54:53.793Z,10.70
2023-01-13T09:57:20.915Z,8.90
2023-01-13T09:59:48.039Z,8.90
2023-01-13T10:02:48.265Z,8.90
2023-01-13T10:05:35.208Z,8.90
2023-01-13T10:08:12.618Z,10.80
2023-01-13T10:10:43.347Z,10.70
2023-01-13T10:13:41.615Z,8.90
2023-01-13T10:16:11.341Z,8.90
2023-01-13T10:18:41.270Z,8.90
2023-01-13T10:21:19.093Z,8.90
2023-01-13T10:24:13.522Z,8.90
2023-01-13T10:27:02.552Z,8.90
2023-01-13T10:29:30.252Z,9.00
2023-01-13T10:31:58.034Z,9.00
2023-01-13T10:34:25.479Z,8.90
2023-01-13T10:37:03.356Z,11.10
2023-01-13T10:39:42.423Z,9.00
2023-01-13T10:42:19.528Z,9.10
2023-01-13T10:44:48.085Z,9.50
2023-01-13T10:47:22.517Z,11.40
2023-01-13T10:50:21.638Z,10.00
2023-01-13T10:53:01.448Z,11.60
2023-01-13T10:55:33.416Z,9.20
2023-01-13T10:58:26.630Z,11.00
2023-01-13T11:01:05.704Z,9.10
2023-01-13T11:03:41.493Z,10.00
2023-01-13T11:06:08.807Z,9.10
2023-01-13T11:08:46.214Z,9.10
2023-01-13T11:11:34.922Z,9.20
2023-01-13T11:14:21.680Z,9.20
2023-01-13T11:16:53.722Z,9.70
2023-01-13T11:19:21.412Z,9.20
2023-01-13T11:22:12.723Z,11.30
2023-01-13T11:24:44.894Z,9.20
2023-01-13T11:27:39.480Z,11.50
2023-01-13T11:30:13.534Z,9.20
2023-01-13T11:32:49.595Z,9.20
2023-01-13T11:35:18.431Z,9.20
2023-01-13T11:37:50.067Z,9.20
2023-01-13T11:40:19.206Z,11.70
2023-01-13T11:43:03.998Z,10.70
2023-01-13T11:45:37.663Z,9.20
2023-01-13T11:48:04.938Z,12.10
2023-01-13T11:50:35.537Z,9.30
2023-01-13T11:53:02.314Z,9.40
2023-01-13T11:55:55.975Z,9.40
2023-01-13T11:59:04.363Z,9.50
2023-01-13T12:01:34.432Z,9.50
2023-01-13T12:04:06.667Z,10.60
2023-01-13T12:06:37.183Z,10.50
2023-01-13T12:09:34.008Z,9.60
2023-01-13T12:12:48.032Z,9.70
2023-01-13T12:15:28.276Z,9.70
2023-01-13T12:18:06.786Z,9.60
2023-01-13T12:20:50.309Z,11.70
2023-01-13T12:23:26.473Z,12.10
2023-01-13T12:25:54.935Z,9.50
2023-01-13T12:28:52.864Z,9.50
2023-01-13T12:31:19.882Z,9.50
2023-01-13T12:33:57.754Z,10.70
2023-01-13T12:36:49.443Z,10.30
2023-01-13T12:39:44.001Z,9.40
2023-01-13T12:43:02.019Z,9.40
2023-01-13T12:45:30.182Z,9.50
2023-01-13T12:47:57.946Z,11.10
2023-01-13T12:50:27.556Z,10.50
2023-01-13T12:52:58.432Z,11.70
2023-01-13T12:55:31.240Z,10.60
2023-01-13T12:58:10.111Z,11.90
2023-01-13T13:00:39.858Z,9.80
2023-01-13T13:03:12.794Z,10.90
2023-01-13T13:06:06.346Z,12.70
2023-01-13T13:08:51.986Z,9.80
2023-01-13T13:11:40.636Z,9.70
2023-01-13T13:14:11.917Z,9.80
2023-01-13T13:16:51.500Z,12.10
2023-01-13T13:19:18.311Z,9.90
2023-01-13T13:22:13.124Z,12.30
2023-01-13T13:24:40.616Z,9.80
2023-01-13T13:27:19.634Z,11.90
2023-01-13T13:29:59.769Z,9.70
2023-01-13T13:32:47.695Z,9.60
2023-01-13T13:35:24.370Z,9.50
2023-01-13T13:38:25.062Z,9.40
2023-01-13T13:41:10.429Z,9.30
2023-01-13T13:43:59.202Z,11.40
2023-01-13T13:46:49.422Z,9.20
2023-01-13T13:49:34.171Z,11.00
2023-01-13T13:52:21.602Z,9.10
2023-01-13T13:54:51.919Z,10.50
2023-01-13T13:57:25.203Z,8.60
2023-01-13T13:59:54.881Z,8.30
2023-01-13T14:02:32.364Z,9.70
2023-01-13T14:05:19.365Z,9.30
2023-01-13T14:07:50.816Z,9.50
2023-01-13T14:10:22.886Z,7.20
2023-01-13T14:12:49.713Z,7.10
2023-01-13T14:15:43.273Z,7.00
2023-01-13T14:18:15.303Z,6.80
2023-01-13T14:20:42.393Z,6.80
2023-01-13T14:23:19.030Z,8.90
2023-01-13T14:25:50.399Z,9.20
2023-01-13T14:28:36.897Z,8.30
2023-01-13T14:31:04.236Z,6.70
2023-01-13T14:33:39.212Z,6.70
2023-01-13T14:36:06.876Z,8.40
2023-01-13T14:38:33.719Z,6.70
2023-01-13T14:41:20.916Z,8.90
2023-01-13T14:43:48.102Z,8.20
2023-01-13T14:46:15.018Z,6.70
2023-01-13T14:48:43.248Z,8.50
2023-01-13T14:51:11.140Z,6.70
2023-01-13T14:53:46.946Z,8.00
2023-01-13T14:56:47.075Z,9.20
2023-01-13T14:59:44.765Z,6.60
2023-01-13T15:02:31.061Z,6.60
2023-01-13T15:05:01.328Z,6.60
2023-01-13T15:07:30.283Z,6.50
2023-01-13T15:10:01.499Z,6.80
2023-01-13T15:12:33.283Z,6.50
2023-01-13T15:15:00.108Z,6.50
2023-01-13T15:17:26.920Z,6.50
2023-01-13T15:19:53.798Z,6.50
2023-01-13T15:22:20.612Z,6.50
2023-01-13T15:24:48.172Z,7.40
2023-01-13T15:27:24.595Z,9.40
2023-01-13T15:29:51.396Z,6.50
2023-01-13T15:32:21.337Z,6.50
2023-01-13T15:34:48.319Z,6.40
2023-01-13T15:37:15.525Z,7.90
2023-01-13T15:39:42.614Z,8.40
2023-01-13T15:42:31.474Z,6.40
2023-01-13T15:45:16.939Z,6.40
2023-01-13T15:47:43.808Z,6.40
2023-01-13T15:50:15.148Z,6.40
2023-01-13T15:52:42.021Z,6.40
2023-01-13T15:55:09.033Z,6.40
2023-01-13T15:57:36.567Z,6.30
2023-01-13T16:00:22.212Z,6.20
2023-01-13T16:02:49.358Z,6.30
2023-01-13T16:05:16.424Z,6.30
2023-01-13T16:07:43.226Z,6.30
2023-01-13T16:10:20.161Z,7.30
2023-01-13T16:12:47.096Z,6.30
2023-01-13T16:15:15.563Z,6.30
2023-01-13T16:17:43.238Z,6.20
2023-01-13T16:20:14.768Z,6.20
2023-01-13T16:26:36.192Z,6.20
2023-01-13T16:29:03.226Z,7.10
2023-01-13T16:31:32.114Z,6.30
2023-01-13T16:34:02.645Z,6.20
2023-01-13T16:36:30.354Z,8.60
2023-01-13T16:38:57.383Z,7.20
2023-01-13T16:41:27.162Z,6.30
2023-01-13T16:43:53.989Z,6.30
2023-01-13T16:46:20.804Z,8.10
2023-01-13T16:48:47.992Z,8.80
2023-01-13T16:51:14.867Z,6.20
2023-01-13T16:53:41.654Z,6.30
2023-01-13T16:56:21.323Z,6.30
2023-01-13T16:58:48.415Z,6.30
2023-01-13T17:01:25.570Z,6.30
2023-01-13T17:03:52.913Z,6.30
2023-01-13T17:06:42.780Z,7.50
2023-01-13T17:09:20.305Z,6.30
2023-01-13T17:11:47.175Z,6.20
2023-01-13T17:14:18.871Z,6.20
2023-01-13T17:16:46.580Z,6.30
2023-01-13T17:19:13.538Z,6.30
2023-01-13T17:21:40.549Z,6.30
2023-01-13T17:24:08.089Z,6.30
2023-01-13T17:26:37.250Z,6.30
2023-01-13T17:29:11.243Z,8.20
2023-01-13T17:31:38.124Z,6.30
2023-01-13T17:34:05.151Z,6.30
2023-01-13T17:36:32.226Z,7.30
2023-01-13T17:39:01.313Z,6.40
2023-01-13T17:41:29.058Z,7.50
2023-01-13T17:43:55.904Z,6.40
2023-01-13T17:46:23.093Z,8.10
2023-01-13T17:48:51.015Z,6.40
2023-01-13T17:51:18.133Z,7.60
2023-01-13T17:53:45.530Z,7.90
2023-01-13T17:56:13.628Z,8.50
2023-01-13T17:58:41.583Z,6.40
2023-01-13T18:01:10.193Z,6.40
2023-01-13T18:03:40.134Z,6.40
2023-01-13T18:06:08.518Z,7.90
2023-01-13T18:08:35.366Z,6.40
2023-01-13T18:11:02.987Z,6.40
2023-01-13T18:13:31.565Z,7.20
2023-01-13T18:16:09.671Z,6.50
2023-01-13T18:18:36.683Z,6.50
2023-01-13T18:21:22.620Z,6.50
2023-01-13T18:24:08.084Z,6.40
2023-01-13T18:26:53.494Z,6.40
2023-01-13T18:29:20.761Z,6.20
2023-01-13T18:31:47.584Z,6.30
2023-01-13T18:34:14.455Z,6.30
2023-01-13T18:36:41.198Z,6.30
2023-01-13T18:39:08.039Z,8.20
2023-01-13T18:41:53.722Z,6.30
2023-01-13T18:44:20.559Z,6.30
2023-01-13T18:46:47.281Z,6.20
2023-01-13T18:49:14.147Z,8.60
2023-01-13T18:51:41.058Z,6.30
2023-01-13T18:54:10.041Z,6.20
2023-01-13T18:56:36.877Z,6.20
2023-01-13T18:59:07.908Z,6.00
2023-01-13T19:01:38.116Z,6.10
2023-01-13T19:04:10.204Z,8.50
2023-01-13T19:06:37.448Z,6.10
2023-01-13T19:09:08.813Z,6.10
2023-01-13T19:11:36.238Z,6.10
2023-01-13T19:14:03.622Z,8.30
2023-01-13T19:16:30.418Z,7.60
2023-01-13T19:18:57.342Z,6.10
2023-01-13T19:21:25.384Z,6.10
2023-01-13T19:23:56.192Z,6.10
2023-01-13T19:26:22.994Z,6.00
2023-01-13T19:28:50.629Z,6.00
2023-01-13T19:31:20.306Z,7.70
2023-01-13T19:33:47.233Z,4.60
2023-01-13T19:36:29.589Z,5.90
2023-01-13T19:38:56.513Z,5.90
2023-01-13T19:41:41.850Z,6.40
2023-01-13T19:44:27.667Z,7.70
2023-01-13T19:46:54.521Z,5.90
2023-01-13T19:49:23.686Z,5.80
2023-01-13T19:51:51.123Z,5.80
2023-01-13T19:54:17.981Z,5.90
2023-01-13T19:56:44.983Z,6.40
2023-01-13T19:59:13.444Z,5.90
2023-01-13T20:01:40.967Z,7.50
2023-01-13T20:04:14.283Z,8.50
2023-01-13T20:06:41.344Z,6.60
2023-01-13T20:09:08.271Z,5.90
2023-01-13T20:11:36.310Z,5.90
2023-01-13T20:14:03.154Z,5.80
2023-01-13T20:16:30.174Z,5.70
2023-01-13T20:18:57.033Z,5.70
2023-01-13T20:21:23.910Z,5.70
2023-01-13T20:23:51.522Z,5.60
2023-01-13T20:26:19.141Z,7.80
2023-01-13T20:28:46.761Z,8.40
2023-01-13T20:31:13.869Z,5.50
2023-01-13T20:33:40.797Z,8.40
2023-01-13T20:36:08.164Z,6.00
2023-01-13T20:38:38.319Z,5.60
2023-01-13T20:41:26.037Z,7.20
2023-01-13T20:43:53.544Z,7.70
2023-01-13T20:46:20.982Z,7.10
2023-01-13T20:48:47.798Z,6.00
2023-01-13T20:51:14.675Z,5.60
2023-01-13T20:53:41.645Z,7.90
2023-01-13T20:56:08.885Z,7.60
2023-01-13T20:58:38.119Z,5.60
2023-01-13T21:01:05.279Z,6.80
2023-01-13T21:03:32.135Z,5.60
2023-01-13T21:05:59.053Z,8.30
2023-01-13T21:08:26.018Z,5.60
2023-01-13T21:11:04.236Z,5.60
2023-01-13T21:13:50.832Z,5.60
2023-01-13T21:16:17.764Z,5.70
2023-01-13T21:19:03.124Z,6.50
2023-01-13T21:21:29.990Z,7.50
2023-01-13T21:23:56.796Z,8.00
2023-01-13T21:26:23.644Z,8.60
2023-01-13T21:28:50.624Z,5.70
2023-01-13T21:31:17.706Z,5.60
2023-01-13T21:33:47.485Z,7.30
2023-01-13T21:36:14.912Z,5.70
2023-01-13T21:38:41.741Z,5.80
2023-01-13T21:41:08.930Z,5.80
2023-01-13T21:43:55.210Z,5.80
2023-01-13T21:46:41.245Z,5.70
2023-01-13T21:49:08.298Z,5.70
2023-01-13T21:51:35.263Z,5.60
2023-01-13T21:54:02.041Z,5.70
2023-01-13T21:56:28.852Z,4.60
2023-01-13T21:58:58.418Z,5.70
2023-01-13T22:01:25.343Z,5.80
2023-01-13T22:04:10.689Z,5.80
2023-01-13T22:06:37.548Z,8.40
2023-01-13T22:09:04.376Z,5.80
2023-01-13T22:11:32.286Z,5.80
2023-01-13T22:14:11.100Z,5.80
2023-01-13T22:16:42.244Z,5.80
2023-01-13T22:19:09.929Z,5.80
2023-01-13T22:21:37.133Z,5.80
2023-01-13T22:24:04.236Z,5.80
2023-01-13T22:26:31.136Z,5.80
2023-01-13T22:28:58.224Z,8.70
2023-01-13T22:31:25.186Z,5.80
2023-01-13T22:33:53.494Z,5.80
2023-01-13T22:36:20.461Z,8.00
2023-01-13T22:38:47.407Z,5.80
2023-01-13T22:41:14.322Z,5.80
2023-01-13T22:43:41.200Z,5.80
2023-01-13T22:46:12.208Z,8.30
2023-01-13T22:48:39.453Z,5.80
2023-01-13T22:51:08.143Z,5.80
2023-01-13T22:53:35.316Z,5.80
2023-01-13T22:56:02.563Z,5.80
2023-01-13T22:58:29.583Z,5.80
2023-01-13T23:00:56.660Z,5.80
2023-01-13T23:03:23.774Z,6.90
2023-01-13T23:05:56.004Z,5.80
2023-01-13T23:08:22.814Z,5.80
2023-01-13T23:10:49.655Z,5.80
2023-01-13T23:13:16.506Z,6.30
2023-01-13T23:15:43.277Z,5.80
2023-01-13T23:18:10.066Z,5.80
2023-01-13T23:20:38.426Z,5.80
2023-01-13T23:23:05.221Z,7.80
2023-01-13T23:25:32.072Z,5.80
2023-01-13T23:27:58.993Z,5.70
2023-01-13T23:30:25.865Z,5.80
2023-01-13T23:32:52.774Z,5.80
2023-01-13T23:35:19.626Z,7.90
2023-01-13T23:37:46.487Z,3.40
2023-01-13T23:40:13.909Z,5.80
2023-01-13T23:42:40.857Z,5.80
2023-01-13T23:45:08.511Z,7.70
2023-01-13T23:47:36.225Z,5.80
2023-01-13T23:50:03.151Z,7.60
2023-01-13T23:52:29.956Z,5.70
2023-01-13T23:54:59.528Z,6.10
2023-01-13T23:57:26.298Z,5.60
2023-01-13T23:59:53.082Z,5.70
